createdAt,value
2018-04-17T00:01:11.638Z,6.70
2018-04-17T00:03:39.099Z,9.47
2018-04-17T00:06:06.552Z,7.67
2018-04-17T00:08:34.018Z,7.23
2018-04-17T00:11:01.495Z,6.13
2018-04-17T00:13:28.951Z,12.67
2018-04-17T00:15:56.412Z,7.57
2018-04-17T00:18:23.923Z,9.63
2018-04-17T00:20:51.375Z,8.47
2018-04-17T00:23:18.853Z,8.40
2018-04-17T00:25:46.309Z,9.80
2018-04-17T00:28:13.777Z,8.63
2018-04-17T00:30:41.237Z,7.60
2018-04-17T00:33:08.697Z,9.20
2018-04-17T00:35:36.186Z,9.30
2018-04-17T00:38:03.651Z,6.53
2018-04-17T00:40:31.114Z,7.27
2018-04-17T00:42:58.578Z,7.50
2018-04-17T00:45:26.041Z,9.03
2018-04-17T00:47:53.517Z,9.00
2018-04-17T00:50:20.979Z,9.00
2018-04-17T00:52:48.438Z,7.60
2018-04-17T00:55:15.903Z,7.27
2018-04-17T00:57:43.353Z,5.87
2018-04-17T01:00:10.841Z,9.00
2018-04-17T01:02:38.311Z,9.00
2018-04-17T01:05:05.767Z,6.93
2018-04-17T01:07:33.239Z,13.90
2018-04-17T01:10:00.691Z,8.00
2018-04-17T01:12:28.176Z,7.57
2018-04-17T01:14:55.625Z,10.80
2018-04-17T01:17:23.084Z,7.97
2018-04-17T01:19:50.546Z,9.60
2018-04-17T01:22:18.014Z,7.30
2018-04-17T01:24:45.487Z,9.40
2018-04-17T01:27:12.948Z,9.93
2018-04-17T01:29:40.415Z,9.53
2018-04-17T01:32:07.874Z,7.33
2018-04-17T01:34:35.338Z,8.17
2018-04-17T01:37:02.819Z,7.63
2018-04-17T01:39:30.276Z,8.83
2018-04-17T01:41:57.746Z,9.40
2018-04-17T01:44:25.213Z,8.43
2018-04-17T01:46:53.450Z,10.30
2018-04-17T01:49:20.924Z,6.87
2018-04-17T01:51:48.391Z,10.57
2018-04-17T01:54:15.841Z,8.67
2018-04-17T01:56:43.309Z,10.40
2018-04-17T01:59:10.775Z,7.73
2018-04-17T02:01:38.260Z,8.77
2018-04-17T02:04:05.735Z,9.60
2018-04-17T02:06:33.186Z,8.77
2018-04-17T02:09:00.655Z,7.00
2018-04-17T02:11:28.116Z,8.90
2018-04-17T02:13:55.591Z,8.30
2018-04-17T02:16:23.830Z,10.37
2018-04-17T02:18:51.293Z,11.40
2018-04-17T02:21:18.774Z,11.93
2018-04-17T02:23:46.247Z,10.13
2018-04-17T02:26:13.728Z,6.90
2018-04-17T02:28:41.185Z,10.37
2018-04-17T02:31:08.654Z,11.90
2018-04-17T02:33:36.114Z,7.73
2018-04-17T02:36:03.575Z,8.80
2018-04-17T02:38:31.046Z,10.20
2018-04-17T02:40:59.289Z,8.77
2018-04-17T02:43:27.515Z,7.00
2018-04-17T02:45:55.742Z,13.53
2018-04-17T02:48:23.199Z,9.27
2018-04-17T02:50:50.692Z,14.20
2018-04-17T02:53:18.163Z,5.97
2018-04-17T02:55:45.630Z,12.30
2018-04-17T02:58:13.104Z,8.57
2018-04-17T03:00:41.345Z,8.13
2018-04-17T03:03:08.837Z,9.38
2018-04-17T03:05:36.315Z,8.20
2018-04-17T03:08:04.557Z,8.80
2018-04-17T03:10:32.026Z,9.77
2018-04-17T03:12:59.494Z,9.47
2018-04-17T03:15:26.984Z,6.63
2018-04-17T03:17:55.213Z,10.30
2018-04-17T03:20:22.667Z,9.73
2018-04-17T03:22:50.165Z,10.80
2018-04-17T03:25:17.640Z,10.32
2018-04-17T03:27:45.132Z,6.65
2018-04-17T03:30:13.370Z,8.50
2018-04-17T03:32:40.837Z,12.07
2018-04-17T03:35:08.302Z,8.20
2018-04-17T03:37:35.784Z,7.72
2018-04-17T03:40:03.273Z,10.23
2018-04-17T03:42:30.747Z,8.07
2018-04-17T03:44:58.224Z,12.10
2018-04-17T03:47:25.690Z,10.50
2018-04-17T03:49:53.159Z,8.23
2018-04-17T03:52:20.648Z,13.85
2018-04-17T03:54:48.132Z,7.45
2018-04-17T03:57:15.589Z,14.45
2018-04-17T03:59:43.055Z,9.82
2018-04-17T04:02:10.532Z,9.30
2018-04-17T04:04:38.775Z,7.87
2018-04-17T04:07:06.249Z,11.25
2018-04-17T04:09:33.714Z,12.43
2018-04-17T04:12:01.171Z,8.25
2018-04-17T04:14:28.640Z,14.18
2018-04-17T04:17:07.984Z,12.35
2018-04-17T04:19:47.267Z,15.98
2018-04-17T04:22:26.630Z,8.63
2018-04-17T04:28:05.377Z,12.48
2018-04-17T04:30:32.845Z,8.00
2018-04-17T04:33:00.321Z,11.27
2018-04-17T04:35:28.551Z,9.40
2018-04-17T04:37:56.011Z,7.90
2018-04-17T04:40:23.501Z,8.73
2018-04-17T04:42:50.977Z,11.77
2018-04-17T04:45:18.441Z,13.05
2018-04-17T04:47:45.916Z,13.50
2018-04-17T04:50:13.380Z,9.85
2018-04-17T04:52:41.645Z,13.13
2018-04-17T04:55:09.116Z,12.80
2018-04-17T04:57:36.632Z,14.30
2018-04-17T05:00:04.069Z,10.55
2018-04-17T05:02:31.548Z,13.15
2018-04-17T05:04:59.032Z,15.82
2018-04-17T05:07:26.489Z,7.72
2018-04-17T05:09:53.961Z,10.00
2018-04-17T05:12:21.417Z,9.77
2018-04-17T05:14:48.882Z,10.18
2018-04-17T05:17:16.367Z,14.15
2018-04-17T05:19:43.822Z,9.90
2018-04-17T05:22:11.291Z,10.02
2018-04-17T05:24:38.770Z,14.38
2018-04-17T05:27:06.253Z,12.73
2018-04-17T05:29:34.513Z,9.90
2018-04-17T05:32:01.978Z,11.98
2018-04-17T05:34:29.450Z,9.02
2018-04-17T05:36:56.926Z,11.07
2018-04-17T05:39:24.395Z,10.83
2018-04-17T05:41:52.638Z,8.88
2018-04-17T05:44:20.097Z,8.50
2018-04-17T05:46:47.570Z,10.93
2018-04-17T05:49:15.038Z,8.97
2018-04-17T05:51:42.490Z,14.43
2018-04-17T05:54:09.969Z,11.43
2018-04-17T05:56:37.439Z,11.83
2018-04-17T05:59:04.907Z,13.17
2018-04-17T06:01:32.366Z,10.60
2018-04-17T06:03:59.837Z,11.97
2018-04-17T06:06:27.323Z,13.50
2018-04-17T06:08:55.546Z,10.00
2018-04-17T06:13:56.801Z,8.87
2018-04-17T06:16:24.273Z,13.37
2018-04-17T06:18:51.749Z,12.40
2018-04-17T06:21:19.215Z,11.27
2018-04-17T06:23:46.682Z,12.00
2018-04-17T06:26:14.156Z,11.67
2018-04-17T06:28:41.608Z,10.53
2018-04-17T06:31:09.082Z,7.93
2018-04-17T06:33:36.556Z,11.13
2018-04-17T06:36:04.018Z,8.67
2018-04-17T06:38:31.476Z,8.80
2018-04-17T06:40:58.943Z,11.73
2018-04-17T06:43:26.430Z,10.20
2018-04-17T06:45:54.662Z,10.63
2018-04-17T06:48:22.124Z,7.73
2018-04-17T06:50:49.626Z,9.40
2018-04-17T06:53:17.113Z,13.77
2018-04-17T06:55:45.369Z,11.60
2018-04-17T06:58:12.849Z,14.70
2018-04-17T07:00:41.074Z,6.63
2018-04-17T07:03:08.548Z,7.60
2018-04-17T07:05:36.026Z,10.40
2018-04-17T07:08:06.717Z,10.10
2018-04-17T07:10:34.184Z,11.63
2018-04-17T07:13:01.677Z,13.13
2018-04-17T07:15:29.146Z,9.30
2018-04-17T07:17:56.626Z,8.00
2018-04-17T07:20:24.091Z,10.37
2018-04-17T07:22:51.571Z,8.67
2018-04-17T07:25:19.800Z,12.00
2018-04-17T07:27:47.268Z,10.33
2018-04-17T07:30:14.737Z,9.93
2018-04-17T07:32:42.200Z,8.73
2018-04-17T07:35:09.671Z,8.20
2018-04-17T07:37:37.129Z,10.40
2018-04-17T07:40:04.607Z,10.33
2018-04-17T07:42:32.062Z,8.63
2018-04-17T07:44:59.525Z,7.27
2018-04-17T07:47:29.931Z,10.37
2018-04-17T07:49:57.371Z,8.37
2018-04-17T07:52:25.597Z,8.37
2018-04-17T07:54:53.082Z,11.17
2018-04-17T07:57:20.542Z,6.37
2018-04-17T07:59:48.013Z,11.30
2018-04-17T08:02:15.492Z,12.97
2018-04-17T08:04:42.966Z,8.43
2018-04-17T08:07:11.208Z,10.20
2018-04-17T08:09:38.674Z,11.77
2018-04-17T08:12:06.134Z,11.40
2018-04-17T08:14:33.603Z,11.33
2018-04-17T08:17:01.842Z,16.87
2018-04-17T08:19:29.317Z,8.70
2018-04-17T08:21:56.797Z,10.50
2018-04-17T08:24:24.254Z,9.90
2018-04-17T08:26:51.721Z,7.07
2018-04-17T08:29:19.186Z,8.53
2018-04-17T08:31:46.667Z,7.27
2018-04-17T08:34:14.129Z,10.07
2018-04-17T08:36:41.611Z,10.47
2018-04-17T08:39:09.079Z,13.20
2018-04-17T08:41:36.543Z,9.40
2018-04-17T08:44:04.785Z,6.10
2018-04-17T08:46:32.248Z,9.53
2018-04-17T08:48:59.754Z,7.77
2018-04-17T08:51:27.201Z,6.87
2018-04-17T08:53:54.658Z,8.90
2018-04-17T08:56:22.165Z,8.93
2018-04-17T08:58:49.627Z,9.53
2018-04-17T09:01:17.089Z,7.07
2018-04-17T09:03:44.555Z,5.53
2018-04-17T09:06:12.026Z,5.80
2018-04-17T09:08:39.522Z,7.33
2018-04-17T09:11:06.981Z,8.87
2018-04-17T09:13:34.443Z,8.17
2018-04-17T09:16:01.904Z,8.00
2018-04-17T09:18:29.370Z,9.37
2018-04-17T09:20:56.865Z,7.67
2018-04-17T09:23:24.318Z,7.07
2018-04-17T09:25:51.780Z,6.23
2018-04-17T09:28:19.241Z,7.50
2018-04-17T09:30:46.721Z,9.10
2018-04-17T09:33:14.205Z,12.63
2018-04-17T09:35:42.438Z,8.70
2018-04-17T09:38:09.893Z,8.07
2018-04-17T09:40:37.356Z,4.80
2018-04-17T09:43:04.833Z,6.00
2018-04-17T09:45:32.313Z,6.27
2018-04-17T09:47:59.772Z,9.23
2018-04-17T09:50:27.237Z,6.57
2018-04-17T09:52:54.699Z,6.23
2018-04-17T09:55:22.170Z,9.87
2018-04-17T09:57:49.637Z,7.17
2018-04-17T10:00:17.101Z,10.20
2018-04-17T10:02:44.561Z,8.23
2018-04-17T10:05:12.020Z,5.57
2018-04-17T10:07:39.486Z,7.77
2018-04-17T10:10:07.021Z,6.77
2018-04-17T10:12:35.205Z,6.90
2018-04-17T10:15:02.679Z,9.23
2018-04-17T10:17:30.127Z,6.17
2018-04-17T10:19:57.599Z,5.27
2018-04-17T10:22:25.073Z,6.80
2018-04-17T10:24:52.531Z,6.37
2018-04-17T10:27:20.008Z,7.60
2018-04-17T10:29:47.526Z,11.67
2018-04-17T10:32:14.964Z,121.50
2018-04-17T10:34:43.220Z,8.13
2018-04-17T10:37:10.671Z,5.10
2018-04-17T10:39:38.214Z,11.17
2018-04-17T10:42:05.598Z,7.77
2018-04-17T10:44:33.828Z,6.13
2018-04-17T10:47:01.311Z,6.07
2018-04-17T10:49:28.781Z,7.17
2018-04-17T10:51:56.243Z,8.97
2018-04-17T10:54:23.714Z,4.60
2018-04-17T10:56:51.197Z,6.40
2018-04-17T10:59:18.682Z,8.53
2018-04-17T11:01:46.140Z,6.73
2018-04-17T11:04:13.594Z,7.40
2018-04-17T11:06:41.048Z,7.67
2018-04-17T11:09:08.513Z,5.70
2018-04-17T11:11:35.998Z,8.77
2018-04-17T11:14:03.452Z,8.27
2018-04-17T11:16:30.912Z,10.50
2018-04-17T11:18:58.382Z,7.33
2018-04-17T11:21:25.837Z,7.63
2018-04-17T11:23:53.333Z,8.57
2018-04-17T11:26:21.563Z,24.67
2018-04-17T11:28:49.021Z,10.87
2018-04-17T11:31:16.500Z,65.80
2018-04-17T11:33:43.972Z,9.00
2018-04-17T11:36:11.445Z,7.60
2018-04-17T11:38:38.911Z,4.87
2018-04-17T11:41:06.382Z,11.50
2018-04-17T11:43:33.845Z,4.43
2018-04-17T11:46:01.309Z,11.47
2018-04-17T11:48:29.544Z,9.37
2018-04-17T11:50:57.016Z,6.73
2018-04-17T11:53:24.483Z,6.13
2018-04-17T11:55:51.954Z,7.27
2018-04-17T11:58:19.408Z,9.33
2018-04-17T12:00:46.895Z,11.03
2018-04-17T12:03:14.364Z,6.60
2018-04-17T12:05:41.837Z,8.47
2018-04-17T12:08:09.298Z,6.97
2018-04-17T12:10:36.762Z,7.50
2018-04-17T12:13:04.238Z,5.40
2018-04-17T12:15:32.456Z,5.00
2018-04-17T12:17:59.934Z,5.53
2018-04-17T12:20:27.452Z,3.53
2018-04-17T12:22:54.894Z,5.37
2018-04-17T12:25:22.387Z,6.00
2018-04-17T12:27:49.850Z,5.50
2018-04-17T12:30:17.307Z,6.10
2018-04-17T12:32:45.543Z,8.67
2018-04-17T12:35:13.008Z,5.20
2018-04-17T12:37:40.502Z,4.13
2018-04-17T12:40:08.729Z,7.93
2018-04-17T12:42:36.180Z,6.50
2018-04-17T12:45:03.645Z,6.30
2018-04-17T12:47:31.122Z,6.27
2018-04-17T12:49:58.594Z,2.17
2018-04-17T12:52:26.058Z,4.07
2018-04-17T12:54:53.547Z,6.87
2018-04-17T12:57:21.036Z,4.97
2018-04-17T12:59:49.272Z,10.90
2018-04-17T13:02:16.776Z,7.43
2018-04-17T13:04:45.015Z,8.57
2018-04-17T13:07:12.473Z,5.00
2018-04-17T13:09:39.938Z,5.53
2018-04-17T13:12:07.413Z,5.17
2018-04-17T13:14:34.883Z,5.87
2018-04-17T13:17:02.362Z,6.57
2018-04-17T13:19:29.825Z,5.70
2018-04-17T13:21:57.288Z,3.70
2018-04-17T13:24:24.754Z,5.63
2018-04-17T13:26:52.233Z,6.17
2018-04-17T13:29:20.473Z,6.40
2018-04-17T13:31:47.934Z,7.47
2018-04-17T13:34:15.390Z,4.10
2018-04-17T13:36:42.848Z,2.33
2018-04-17T13:39:10.316Z,3.03
2018-04-17T13:41:37.777Z,3.07
2018-04-17T13:44:05.252Z,2.10
2018-04-17T13:46:32.718Z,4.70
2018-04-17T13:49:00.195Z,6.07
2018-04-17T13:51:27.705Z,4.67
2018-04-17T13:53:55.169Z,5.40
2018-04-17T13:56:22.644Z,5.37
2018-04-17T13:58:50.109Z,3.97
2018-04-17T14:01:17.578Z,4.77
2018-04-17T14:03:45.065Z,3.30
2018-04-17T14:06:12.520Z,2.83
2018-04-17T14:08:39.996Z,5.03
2018-04-17T14:11:07.465Z,2.67
2018-04-17T14:13:34.931Z,4.37
2018-04-17T14:16:02.418Z,4.83
2018-04-17T14:18:30.651Z,3.23
2018-04-17T14:20:58.126Z,5.20
2018-04-17T14:23:26.346Z,2.20
2018-04-17T14:25:54.585Z,5.90
2018-04-17T14:28:22.077Z,4.27
2018-04-17T14:30:49.548Z,6.63
2018-04-17T14:33:17.783Z,5.63
2018-04-17T14:35:45.254Z,6.07
2018-04-17T14:38:12.717Z,3.63
2018-04-17T14:40:40.214Z,4.57
2018-04-17T14:43:07.734Z,2.57
2018-04-17T14:45:35.922Z,3.50
2018-04-17T14:48:03.388Z,3.20
2018-04-17T14:50:30.855Z,4.83
2018-04-17T14:52:58.345Z,6.03
2018-04-17T14:55:25.814Z,5.27
2018-04-17T14:57:53.275Z,1.47
2018-04-17T15:00:20.743Z,3.00
2018-04-17T15:02:48.201Z,5.70
2018-04-17T15:05:15.679Z,5.23
2018-04-17T15:07:43.901Z,1.90
2018-04-17T15:10:11.365Z,3.13
2018-04-17T15:12:38.824Z,5.10
2018-04-17T15:15:06.292Z,2.83
2018-04-17T15:17:33.788Z,2.40
2018-04-17T15:20:01.251Z,2.83
2018-04-17T15:22:28.720Z,2.93
2018-04-17T15:24:56.190Z,3.70
2018-04-17T15:27:23.645Z,3.23
2018-04-17T15:29:51.155Z,5.40
2018-04-17T15:32:18.618Z,3.00
2018-04-17T15:34:46.081Z,3.37
2018-04-17T15:37:13.551Z,4.93
2018-04-17T15:39:41.031Z,5.93
2018-04-17T15:42:08.529Z,4.73
2018-04-17T15:44:35.999Z,1.57
2018-04-17T15:47:03.463Z,3.63
2018-04-17T15:49:30.940Z,3.47
2018-04-17T15:51:59.183Z,4.57
2018-04-17T15:54:26.667Z,2.50
2018-04-17T15:56:54.129Z,2.40
2018-04-17T15:59:21.586Z,1.70
2018-04-17T16:01:49.051Z,1.80
2018-04-17T16:04:16.516Z,4.00
2018-04-17T16:06:43.995Z,2.33
2018-04-17T16:09:11.454Z,2.37
2018-04-17T16:11:39.702Z,4.17
2018-04-17T16:14:07.154Z,6.23
2018-04-17T16:16:34.627Z,7.20
2018-04-17T16:19:02.114Z,8.07
2018-04-17T16:21:29.630Z,3.43
2018-04-17T16:23:57.067Z,7.57
2018-04-17T16:26:25.302Z,37.90
2018-04-17T16:28:52.767Z,7.47
2018-04-17T16:31:20.253Z,4.63
2018-04-17T16:33:47.735Z,5.63
2018-04-17T16:36:15.185Z,2.80
2018-04-17T16:38:42.648Z,4.40
2018-04-17T16:41:10.161Z,4.03
2018-04-17T16:43:37.600Z,6.00
2018-04-17T16:46:05.818Z,9.87
2018-04-17T16:48:33.285Z,6.93
2018-04-17T16:51:00.749Z,5.03
2018-04-17T16:53:28.204Z,7.43
2018-04-17T16:55:55.692Z,4.40
2018-04-17T16:58:23.160Z,6.60
2018-04-17T17:00:51.386Z,7.30
2018-04-17T17:03:18.961Z,3.70
2018-04-17T17:05:46.419Z,3.27
2018-04-17T17:08:13.909Z,6.27
2018-04-17T17:10:41.375Z,5.73
2018-04-17T17:13:08.836Z,2.47
2018-04-17T17:15:36.301Z,2.77
2018-04-17T17:18:03.760Z,4.17
2018-04-17T17:20:31.248Z,3.90
2018-04-17T17:22:58.719Z,3.53
2018-04-17T17:25:26.180Z,2.73
2018-04-17T17:27:53.647Z,3.23
2018-04-17T17:30:21.132Z,4.03
2018-04-17T17:32:48.603Z,3.77
2018-04-17T17:35:16.834Z,4.53
2018-04-17T17:37:44.310Z,3.83
2018-04-17T17:40:11.779Z,3.13
2018-04-17T17:42:39.263Z,5.57
2018-04-17T17:45:06.765Z,5.10
2018-04-17T17:47:34.250Z,3.90
2018-04-17T17:50:01.708Z,3.13
2018-04-17T17:52:29.184Z,7.03
2018-04-17T17:54:56.653Z,6.00
2018-04-17T17:57:24.195Z,4.70
2018-04-17T17:59:51.643Z,5.87
2018-04-17T18:02:19.103Z,5.77
2018-04-17T18:04:46.588Z,5.70
2018-04-17T18:07:14.063Z,8.50
2018-04-17T18:09:41.557Z,6.97
2018-04-17T18:12:09.049Z,6.57
2018-04-17T18:14:37.269Z,8.43
2018-04-17T18:17:04.735Z,7.83
2018-04-17T18:19:32.194Z,5.50
2018-04-17T18:21:59.705Z,6.17
2018-04-17T18:24:27.161Z,6.67
2018-04-17T18:26:54.646Z,5.30
2018-04-17T18:29:22.876Z,5.73
2018-04-17T18:31:50.347Z,5.47
2018-04-17T18:34:17.832Z,5.03
2018-04-17T18:36:45.303Z,6.70
2018-04-17T18:39:13.597Z,8.47
2018-04-17T18:41:41.092Z,11.27
2018-04-17T18:44:08.561Z,7.00
2018-04-17T18:46:36.042Z,8.50
2018-04-17T18:49:03.513Z,4.47
2018-04-17T18:51:30.984Z,5.47
2018-04-17T18:53:58.449Z,7.50
2018-04-17T18:56:25.916Z,3.63
2018-04-17T18:58:53.415Z,5.83
2018-04-17T19:01:21.675Z,3.10
2018-04-17T19:03:49.136Z,6.40
2018-04-17T19:06:16.603Z,5.20
2018-04-17T19:08:44.858Z,5.20
2018-04-17T19:11:13.111Z,6.73
2018-04-17T19:13:40.591Z,90.57
2018-04-17T19:16:08.067Z,5.00
2018-04-17T19:18:35.566Z,3.93
2018-04-17T19:21:03.811Z,5.87
2018-04-17T19:23:31.299Z,5.70
2018-04-17T19:25:59.554Z,7.47
2018-04-17T19:28:27.819Z,4.80
2018-04-17T19:30:55.299Z,4.57
2018-04-17T19:33:22.802Z,6.67
2018-04-17T19:35:51.053Z,5.70
2018-04-17T19:38:18.600Z,7.10
2018-04-17T19:40:46.047Z,8.57
2018-04-17T19:43:13.514Z,4.73
2018-04-17T19:45:40.996Z,5.77
2018-04-17T19:48:09.362Z,6.60
2018-04-17T19:50:36.840Z,3.97
2018-04-17T19:53:04.306Z,7.77
2018-04-17T19:55:31.792Z,9.53
2018-04-17T19:57:59.288Z,4.10
2018-04-17T20:00:27.552Z,5.33
2018-04-17T20:02:55.015Z,6.77
2018-04-17T20:05:22.475Z,6.80
2018-04-17T20:07:49.960Z,6.77
2018-04-17T20:10:18.227Z,4.87
2018-04-17T20:12:45.715Z,6.83
2018-04-17T20:15:13.214Z,4.60
2018-04-17T20:17:40.694Z,4.70
2018-04-17T20:20:08.176Z,8.13
2018-04-17T20:22:36.430Z,4.53
2018-04-17T20:25:03.928Z,5.87
2018-04-17T20:27:32.154Z,4.43
2018-04-17T20:29:59.631Z,3.77
2018-04-17T20:32:27.098Z,4.80
2018-04-17T20:34:54.575Z,7.37
2018-04-17T20:37:22.206Z,5.53
2018-04-17T20:39:49.669Z,7.70
2018-04-17T20:42:17.168Z,2.83
2018-04-17T20:44:44.600Z,7.50
2018-04-17T20:47:12.086Z,5.10
2018-04-17T20:49:39.589Z,6.63
2018-04-17T20:52:07.818Z,7.23
2018-04-17T20:54:35.291Z,3.90
2018-04-17T20:57:02.854Z,4.03
2018-04-17T20:59:30.335Z,5.77
2018-04-17T21:01:57.814Z,9.30
2018-04-17T21:04:25.313Z,3.93
2018-04-17T21:06:53.553Z,5.30
2018-04-17T21:09:21.022Z,7.33
2018-04-17T21:11:48.500Z,6.73
2018-04-17T21:14:16.741Z,5.93
2018-04-17T21:16:44.212Z,5.80
2018-04-17T21:19:11.674Z,8.23
2018-04-17T21:21:39.137Z,8.67
2018-04-17T21:24:06.610Z,7.13
2018-04-17T21:26:34.090Z,6.17
2018-04-17T21:29:01.551Z,5.90
2018-04-17T21:31:29.052Z,5.40
2018-04-17T21:33:56.537Z,9.90
2018-04-17T21:36:23.999Z,9.43
2018-04-17T21:38:51.476Z,6.37
2018-04-17T21:41:18.942Z,8.07
2018-04-17T21:43:46.427Z,5.57
2018-04-17T21:46:13.889Z,5.10
2018-04-17T21:48:41.362Z,7.87
2018-04-17T21:51:08.863Z,4.03
2018-04-17T21:53:36.332Z,7.70
2018-04-17T21:56:03.799Z,4.07
2018-04-17T21:58:31.277Z,6.37
2018-04-17T22:00:58.738Z,6.07
2018-04-17T22:03:26.237Z,6.80
2018-04-17T22:05:53.707Z,7.40
2018-04-17T22:08:21.161Z,6.13
2018-04-17T22:10:48.636Z,5.40
2018-04-17T22:13:16.089Z,7.03
2018-04-17T22:15:43.574Z,7.00
2018-04-17T22:18:11.808Z,5.60
2018-04-17T22:20:39.283Z,5.00
2018-04-17T22:23:06.754Z,9.20
2018-04-17T22:25:34.221Z,7.67
2018-04-17T22:28:01.717Z,5.07
2018-04-17T22:30:29.939Z,6.13
2018-04-17T22:32:57.412Z,4.07
2018-04-17T22:35:24.867Z,5.23
2018-04-17T22:37:52.342Z,26.30
2018-04-17T22:40:19.840Z,42.90
2018-04-17T22:42:47.313Z,58.63
2018-04-17T22:45:15.567Z,99.40
2018-04-17T22:47:43.030Z,111.30
2018-04-17T22:50:10.513Z,99.13
2018-04-17T22:52:37.992Z,92.83
2018-04-17T22:55:06.227Z,72.80
2018-04-17T22:57:34.469Z,63.23
2018-04-17T23:00:01.933Z,52.37
2018-04-17T23:02:29.410Z,43.90
2018-04-17T23:04:56.890Z,42.70
2018-04-17T23:07:24.357Z,52.00
2018-04-17T23:09:51.828Z,58.40
2018-04-17T23:12:19.298Z,65.23
2018-04-17T23:14:46.769Z,72.27
2018-04-17T23:17:14.256Z,64.03
2018-04-17T23:19:42.492Z,72.90
2018-04-17T23:22:10.006Z,80.20
2018-04-17T23:24:37.426Z,75.87
2018-04-17T23:27:04.900Z,79.07
2018-04-17T23:29:32.391Z,70.30
2018-04-17T23:32:00.621Z,77.30
2018-04-17T23:34:28.092Z,63.33
2018-04-17T23:36:55.559Z,69.63
2018-04-17T23:39:23.021Z,69.70
2018-04-17T23:41:50.506Z,64.23
2018-04-17T23:44:17.974Z,62.17
2018-04-17T23:46:45.498Z,61.23
2018-04-17T23:49:13.688Z,56.10
2018-04-17T23:51:41.171Z,62.30
2018-04-17T23:54:08.656Z,60.87
2018-04-17T23:56:36.891Z,70.57
2018-04-17T23:59:04.353Z,64.33
